Time;durP1;ratioP1;P1;durP2;ratioP2;P2;SDS_P1;SDS_P2;PMS_P1;PMS_P2;Temp;Humidity;BMP_temperature;BMP_pressure;BME280_temperature;BME280_humidity;BME280_pressure;Samples;Min_cycle;Max_cycle;Signal;HPM_P1;HPM_P2
2022/07/20 00:02:07;;;;;;;;;;;26.40;6.00;;;;;;5101985;28;20018;-76
2022/07/20 00:04:35;;;;;;;;;;;26.40;6.90;;;;;;5097372;27;19931;-75
2022/07/20 00:07:02;;;;;;;;;;;26.30;7.60;;;;;;5101431;28;20479;-76
2022/07/20 00:12:13;;;;;;;;;;;26.10;9.00;;;;;;5097233;28;20076;-75
2022/07/20 00:14:40;;;;;;;;;;;26.00;10.10;;;;;;5100754;28;20377;-76
2022/07/20 00:17:07;;;;;;;;;;;25.90;11.80;;;;;;5102704;28;20406;-76
2022/07/20 00:19:34;;;;;;;;;;;25.80;13.20;;;;;;5104863;28;19924;-76
2022/07/20 00:22:02;;;;;;;;;;;25.80;14.40;;;;;;5103907;28;19963;-76
2022/07/20 00:24:28;;;;;;;;;;;25.70;15.30;;;;;;5100581;28;20019;-77
2022/07/20 00:26:55;;;;;;;;;;;25.60;16.20;;;;;;5099556;28;19963;-78
2022/07/20 00:29:22;;;;;;;;;;;25.60;16.90;;;;;;5096928;28;20022;-78
2022/07/20 00:31:48;;;;;;;;;;;25.60;17.60;;;;;;5102308;28;20050;-76
2022/07/20 00:34:15;;;;;;;;;;;25.50;18.10;;;;;;5100668;28;20029;-76
2022/07/20 00:36:42;;;;;;;;;;;25.40;18.60;;;;;;5099897;28;19982;-76
2022/07/20 00:39:10;;;;;;;;;;;25.30;19.20;;;;;;5100133;28;20026;-76
2022/07/20 00:41:36;;;;;;;;;;;25.20;20.20;;;;;;5099263;28;19955;-76
2022/07/20 00:44:05;;;;;;;;;;;25.20;21.50;;;;;;5101310;28;19932;-75
2022/07/20 00:46:33;;;;;;;;;;;25.20;22.60;;;;;;5105380;28;19924;-75
2022/07/20 00:49:00;;;;;;;;;;;25.10;23.60;;;;;;5103927;28;20018;-76
2022/07/20 00:51:27;;;;;;;;;;;25.00;24.60;;;;;;5102330;28;19924;-76
2022/07/20 00:53:54;;;;;;;;;;;24.90;26.00;;;;;;5090320;28;20011;-77
2022/07/20 00:56:22;;;;;;;;;;;24.90;27.20;;;;;;5088655;28;20018;-76
2022/07/20 00:58:49;;;;;;;;;;;24.80;28.70;;;;;;5093410;28;20501;-76
2022/07/20 01:01:17;;;;;;;;;;;24.70;30.50;;;;;;5096288;28;20482;-77
2022/07/20 01:03:44;;;;;;;;;;;24.70;32.80;;;;;;5091864;28;20402;-77
2022/07/20 01:06:11;;;;;;;;;;;24.60;35.20;;;;;;5098196;28;20884;-77
2022/07/20 01:08:38;;;;;;;;;;;24.60;37.70;;;;;;5093104;28;19978;-78
2022/07/20 01:11:05;;;;;;;;;;;24.50;40.80;;;;;;5090124;28;19971;-77
2022/07/20 01:13:33;;;;;;;;;;;24.50;43.40;;;;;;5097766;28;19931;-78
2022/07/20 01:16:00;;;;;;;;;;;24.40;46.70;;;;;;5098344;27;20003;-78
2022/07/20 01:18:26;;;;;;;;;;;24.30;50.50;;;;;;5104636;28;20006;-77
2022/07/20 01:20:58;;;;;;;;;;;24.30;54.40;;;;;;5097251;28;20019;-78
2022/07/20 01:23:25;;;;;;;;;;;24.10;58.20;;;;;;5092977;28;19939;-78
2022/07/20 01:25:51;;;;;;;;;;;24.10;63.10;;;;;;5100485;28;19971;-79
2022/07/20 01:28:18;;;;;;;;;;;24.10;67.70;;;;;;5093611;28;20019;-77
2022/07/20 01:30:45;;;;;;;;;;;24.00;72.30;;;;;;5095263;27;19931;-77
2022/07/20 01:33:11;;;;;;;;;;;24.00;75.60;;;;;;5093811;27;20011;-77
2022/07/20 01:35:38;;;;;;;;;;;23.90;78.90;;;;;;5095120;28;20326;-76
2022/07/20 01:38:06;;;;;;;;;;;23.90;82.30;;;;;;5093294;28;20326;-77
2022/07/20 01:40:33;;;;;;;;;;;23.80;84.60;;;;;;5095129;27;20028;-77
2022/07/20 01:42:59;;;;;;;;;;;23.80;87.20;;;;;;5102925;28;19930;-77
2022/07/20 01:45:26;;;;;;;;;;;23.70;89.80;;;;;;5095231;27;20016;-77
2022/07/20 01:47:53;;;;;;;;;;;23.70;90.80;;;;;;5098807;28;19931;-78
2022/07/20 01:50:19;;;;;;;;;;;23.60;91.60;;;;;;5095186;28;19924;-76
2022/07/20 01:52:46;;;;;;;;;;;23.60;92.50;;;;;;5093481;28;20133;-77
2022/07/20 01:55:15;;;;;;;;;;;23.60;93.20;;;;;;5095934;27;19934;-76
2022/07/20 01:57:42;;;;;;;;;;;23.50;93.70;;;;;;5108203;28;20681;-77
2022/07/20 02:00:10;;;;;;;;;;;23.50;94.30;;;;;;5095486;28;20015;-76
2022/07/20 02:02:36;;;;;;;;;;;23.40;94.70;;;;;;5101036;28;20299;-76
2022/07/20 02:05:03;;;;;;;;;;;23.40;95.30;;;;;;5098163;27;19938;-76
2022/07/20 02:07:30;;;;;;;;;;;23.40;95.80;;;;;;5100550;28;20018;-76
2022/07/20 02:09:59;;;;;;;;;;;23.30;96.30;;;;;;5094009;27;20075;-76
2022/07/20 02:12:27;;;;;;;;;;;23.30;96.30;;;;;;5096970;28;20012;-76
2022/07/20 02:14:54;;;;;;;;;;;23.30;96.60;;;;;;5094233;27;19967;-76
2022/07/20 02:17:21;;;;;;;;;;;23.20;97.00;;;;;;5098125;27;20082;-76
2022/07/20 02:19:47;;;;;;;;;;;23.20;97.60;;;;;;5093313;28;20422;-76
2022/07/20 02:22:14;;;;;;;;;;;23.10;97.90;;;;;;5099800;28;20382;-76
2022/07/20 02:24:41;;;;;;;;;;;23.10;98.20;;;;;;5101301;28;19923;-76
2022/07/20 02:27:07;;;;;;;;;;;23.00;98.40;;;;;;5104278;28;19924;-76
2022/07/20 02:29:35;;;;;;;;;;;23.00;98.50;;;;;;5103398;28;20459;-76
2022/07/20 02:32:02;;;;;;;;;;;23.00;98.70;;;;;;5104789;28;19967;-75
2022/07/20 02:34:29;;;;;;;;;;;23.00;98.90;;;;;;5099900;28;20305;-75
2022/07/20 02:36:55;;;;;;;;;;;23.00;99.20;;;;;;5105569;28;20382;-74
2022/07/20 02:39:22;;;;;;;;;;;22.90;99.50;;;;;;5103290;28;20014;-75
2022/07/20 02:41:49;;;;;;;;;;;22.90;99.70;;;;;;5104105;28;19928;-75
2022/07/20 02:44:15;;;;;;;;;;;22.90;99.90;;;;;;5100818;28;20063;-75
2022/07/20 02:46:43;;;;;;;;;;;22.90;99.90;;;;;;5097162;28;20052;-75
2022/07/20 02:49:10;;;;;;;;;;;22.90;99.90;;;;;;5102896;28;20015;-75
2022/07/20 02:51:37;;;;;;;;;;;22.90;99.90;;;;;;5102782;28;19979;-75
2022/07/20 02:54:03;;;;;;;;;;;22.90;99.90;;;;;;5104598;28;19969;-76
2022/07/20 02:56:30;;;;;;;;;;;22.90;99.90;;;;;;5100668;28;20402;-76
2022/07/20 02:58:57;;;;;;;;;;;22.90;99.90;;;;;;5095983;28;19928;-76
2022/07/20 03:01:23;;;;;;;;;;;22.80;99.90;;;;;;5105376;28;20023;-76
2022/07/20 03:03:51;;;;;;;;;;;22.80;99.90;;;;;;5103293;28;20118;-76
2022/07/20 03:06:20;;;;;;;;;;;22.80;99.90;;;;;;5098133;27;20489;-76
2022/07/20 03:08:46;;;;;;;;;;;22.70;99.90;;;;;;5096538;28;19936;-76
2022/07/20 03:11:13;;;;;;;;;;;22.70;99.90;;;;;;5096167;27;19936;-76
2022/07/20 03:13:40;;;;;;;;;;;22.70;99.90;;;;;;5092539;28;20007;-75
2022/07/20 03:16:06;;;;;;;;;;;22.70;99.90;;;;;;5096111;28;20446;-75
2022/07/20 03:18:33;;;;;;;;;;;22.60;99.90;;;;;;5110089;28;20112;-75
2022/07/20 03:21:01;;;;;;;;;;;22.60;99.90;;;;;;5094897;28;20045;-75
2022/07/20 03:23:28;;;;;;;;;;;22.50;99.90;;;;;;5099260;28;19969;-75
2022/07/20 03:25:54;;;;;;;;;;;22.50;99.90;;;;;;5095699;28;20022;-75
2022/07/20 03:28:21;;;;;;;;;;;22.40;99.90;;;;;;5103762;27;20026;-77
2022/07/20 03:30:48;;;;;;;;;;;22.40;99.90;;;;;;5108294;28;20413;-76
2022/07/20 03:33:14;;;;;;;;;;;22.40;99.90;;;;;;5097330;28;20014;-76
2022/07/20 03:35:41;;;;;;;;;;;22.40;99.90;;;;;;5102972;28;20018;-76
2022/07/20 03:38:09;;;;;;;;;;;22.30;99.90;;;;;;5096707;28;19963;-76
2022/07/20 03:40:36;;;;;;;;;;;22.30;99.90;;;;;;5092791;28;20458;-75
2022/07/20 03:43:03;;;;;;;;;;;22.30;99.90;;;;;;5092239;28;20469;-76
2022/07/20 03:45:29;;;;;;;;;;;22.30;99.90;;;;;;5095869;28;19930;-78
2022/07/20 03:47:56;;;;;;;;;;;22.20;99.90;;;;;;5096071;27;19923;-75
2022/07/20 03:50:23;;;;;;;;;;;22.10;99.90;;;;;;5092763;28;19967;-76
2022/07/20 03:52:50;;;;;;;;;;;22.10;99.90;;;;;;5092694;28;20383;-76
2022/07/20 03:55:18;;;;;;;;;;;22.10;99.90;;;;;;5096672;28;20307;-76
2022/07/20 03:57:45;;;;;;;;;;;22.00;99.90;;;;;;5091726;28;19928;-76
2022/07/20 04:00:12;;;;;;;;;;;22.00;99.90;;;;;;5092297;28;20027;-76
2022/07/20 04:02:38;;;;;;;;;;;22.00;99.90;;;;;;5092730;28;20011;-77
2022/07/20 04:05:06;;;;;;;;;;;21.90;99.90;;;;;;5097253;27;19932;-76
2022/07/20 04:07:32;;;;;;;;;;;21.90;99.90;;;;;;5096596;28;20023;-76
2022/07/20 04:09:59;;;;;;;;;;;21.90;99.90;;;;;;5101385;28;20363;-76
2022/07/20 04:12:27;;;;;;;;;;;21.90;99.90;;;;;;5099789;28;19967;-76
2022/07/20 04:14:54;;;;;;;;;;;21.80;99.90;;;;;;5091279;28;20003;-77
2022/07/20 04:17:21;;;;;;;;;;;21.80;99.90;;;;;;5095621;27;20224;-77
2022/07/20 04:19:48;;;;;;;;;;;21.80;99.90;;;;;;5092046;28;20018;-77
2022/07/20 04:22:15;;;;;;;;;;;21.80;99.90;;;;;;5091864;28;20019;-76
2022/07/20 04:24:42;;;;;;;;;;;21.80;99.90;;;;;;5098966;28;19951;-77
2022/07/20 04:27:09;;;;;;;;;;;21.80;99.90;;;;;;5103937;28;20010;-77
2022/07/20 04:29:37;;;;;;;;;;;21.80;99.90;;;;;;5103210;28;20035;-77
2022/07/20 04:32:03;;;;;;;;;;;21.80;99.90;;;;;;5103128;28;19924;-76
2022/07/20 04:34:30;;;;;;;;;;;21.80;99.90;;;;;;5101783;28;19923;-76
2022/07/20 04:36:57;;;;;;;;;;;21.80;99.90;;;;;;5094656;28;20474;-77
2022/07/20 04:39:24;;;;;;;;;;;21.90;99.90;;;;;;5095405;28;19977;-77
2022/07/20 04:41:50;;;;;;;;;;;21.90;99.90;;;;;;5101953;28;19953;-76
2022/07/20 04:44:17;;;;;;;;;;;22.00;99.90;;;;;;5099979;28;20336;-76
2022/07/20 04:46:45;;;;;;;;;;;22.00;99.90;;;;;;5093080;28;20019;-76
2022/07/20 04:49:12;;;;;;;;;;;22.00;99.90;;;;;;5095190;28;19963;-76
2022/07/20 04:51:38;;;;;;;;;;;22.00;99.90;;;;;;5098588;27;19959;-76
2022/07/20 04:54:05;;;;;;;;;;;22.00;99.90;;;;;;5095206;28;19928;-77
2022/07/20 04:56:32;;;;;;;;;;;22.00;99.90;;;;;;5101481;27;19971;-76
2022/07/20 04:58:59;;;;;;;;;;;22.10;99.90;;;;;;5096638;27;19967;-76
2022/07/20 05:01:25;;;;;;;;;;;22.20;99.90;;;;;;5111106;28;19935;-78
2022/07/20 05:03:54;;;;;;;;;;;22.30;99.90;;;;;;5097106;27;20485;-77
2022/07/20 05:06:20;;;;;;;;;;;22.40;99.90;;;;;;5095837;27;20125;-77
2022/07/20 05:08:47;;;;;;;;;;;22.50;99.90;;;;;;5100641;28;20413;-77
2022/07/20 05:11:14;;;;;;;;;;;22.50;99.90;;;;;;5094494;27;20026;-77
2022/07/20 05:13:41;;;;;;;;;;;22.50;99.90;;;;;;5104473;28;20357;-77
2022/07/20 05:16:09;;;;;;;;;;;22.40;99.90;;;;;;5097490;27;19931;-78
2022/07/20 05:18:36;;;;;;;;;;;22.50;99.90;;;;;;5096184;28;19924;-77
2022/07/20 05:21:04;;;;;;;;;;;22.40;99.90;;;;;;5095673;27;19972;-78
2022/07/20 05:23:31;;;;;;;;;;;22.40;99.90;;;;;;5102616;28;20366;-81
2022/07/20 05:25:58;;;;;;;;;;;22.40;99.90;;;;;;5105800;27;19970;-81
2022/07/20 05:28:24;;;;;;;;;;;22.50;99.90;;;;;;5102818;28;20018;-82
2022/07/20 05:30:51;;;;;;;;;;;22.60;99.90;;;;;;5096630;27;20353;-82
2022/07/20 05:33:18;;;;;;;;;;;22.60;99.90;;;;;;5099360;27;20382;-80
2022/07/20 05:35:45;;;;;;;;;;;22.70;99.80;;;;;;5100129;27;19992;-81
2022/07/20 05:38:14;;;;;;;;;;;22.70;99.70;;;;;;5092828;28;19931;-80
2022/07/20 05:40:40;;;;;;;;;;;22.70;99.70;;;;;;5096190;28;19967;-79
2022/07/20 05:43:07;;;;;;;;;;;22.80;99.20;;;;;;5102561;27;19959;-75
2022/07/20 05:45:34;;;;;;;;;;;22.80;98.60;;;;;;5104607;27;19924;-74
2022/07/20 05:48:00;;;;;;;;;;;22.90;98.10;;;;;;5098890;28;20094;-74
2022/07/20 05:50:27;;;;;;;;;;;23.00;98.00;;;;;;5095988;28;19967;-74
2022/07/20 05:52:54;;;;;;;;;;;23.10;97.60;;;;;;5091583;28;20256;-75
2022/07/20 05:55:22;;;;;;;;;;;23.20;97.30;;;;;;5094466;27;19946;-75
2022/07/20 05:57:48;;;;;;;;;;;23.30;96.90;;;;;;5095521;27;19935;-72
2022/07/20 06:00:15;;;;;;;;;;;23.20;96.50;;;;;;5098051;28;20011;-72
2022/07/20 06:02:42;;;;;;;;;;;23.40;96.40;;;;;;5097748;28;19932;-73
2022/07/20 06:05:09;;;;;;;;;;;23.50;96.20;;;;;;5098519;27;19928;-72
2022/07/20 06:07:36;;;;;;;;;;;23.90;95.60;;;;;;5096855;27;19971;-73
2022/07/20 06:10:04;;;;;;;;;;;24.70;94.50;;;;;;5095187;28;19924;-73
2022/07/20 06:12:32;;;;;;;;;;;25.30;91.80;;;;;;5097755;28;20034;-73
2022/07/20 06:14:58;;;;;;;;;;;25.90;90.00;;;;;;5099794;28;20037;-73
2022/07/20 06:17:32;;;;;;;;;;;26.30;86.20;;;;;;5093996;28;20010;-72
2022/07/20 06:20:01;;;;;;;;;;;26.40;82.40;;;;;;5093760;27;20011;-72
2022/07/20 06:22:29;;;;;;;;;;;26.60;80.30;;;;;;5095859;27;19924;-73
2022/07/20 06:24:55;;;;;;;;;;;26.30;78.90;;;;;;5100691;27;19975;-73
2022/07/20 06:27:22;;;;;;;;;;;25.90;79.20;;;;;;5097018;27;20527;-72
2022/07/20 06:29:50;;;;;;;;;;;25.20;81.50;;;;;;5094890;27;19974;-73
2022/07/20 06:32:17;;;;;;;;;;;24.90;84.90;;;;;;5091010;27;19967;-72
2022/07/20 06:34:45;;;;;;;;;;;25.00;85.60;;;;;;5098020;27;19925;-71
2022/07/20 06:37:12;;;;;;;;;;;25.00;85.40;;;;;;5096627;27;20366;-71
2022/07/20 06:39:38;;;;;;;;;;;24.80;86.00;;;;;;5096137;27;19927;-71
2022/07/20 06:42:05;;;;;;;;;;;24.60;86.50;;;;;;5090679;27;20022;-71
2022/07/20 06:44:32;;;;;;;;;;;24.50;87.70;;;;;;5097599;28;20007;-71
2022/07/20 06:47:00;;;;;;;;;;;24.40;87.90;;;;;;5092704;28;19924;-76
2022/07/20 06:49:27;;;;;;;;;;;24.40;88.30;;;;;;5098416;27;20440;-77
2022/07/20 06:51:54;;;;;;;;;;;24.30;88.70;;;;;;5099103;27;19924;-77
2022/07/20 06:54:20;;;;;;;;;;;24.10;89.30;;;;;;5095321;28;20382;-77
2022/07/20 06:56:47;;;;;;;;;;;24.00;90.00;;;;;;5101069;28;19984;-78
2022/07/20 06:59:14;;;;;;;;;;;24.00;90.10;;;;;;5094541;28;20014;-77
2022/07/20 07:01:40;;;;;;;;;;;24.00;90.10;;;;;;5095952;27;20026;-77
2022/07/20 07:04:09;;;;;;;;;;;24.40;90.00;;;;;;5098610;28;19934;-76
2022/07/20 07:06:35;;;;;;;;;;;25.20;86.40;;;;;;5096412;27;20023;-80
2022/07/20 07:09:02;;;;;;;;;;;25.60;82.80;;;;;;5098203;28;20453;-79
2022/07/20 07:11:29;;;;;;;;;;;25.70;81.10;;;;;;5099984;27;19950;-79
2022/07/20 07:13:56;;;;;;;;;;;25.40;79.90;;;;;;5094435;28;20379;-80
2022/07/20 07:16:24;;;;;;;;;;;25.00;81.40;;;;;;5092649;28;19924;-75
2022/07/20 07:18:51;;;;;;;;;;;24.60;81.30;;;;;;5095982;28;19924;-77
2022/07/20 07:21:19;;;;;;;;;;;24.30;83.10;;;;;;5103522;28;19978;-77
2022/07/20 07:23:49;;;;;;;;;;;24.30;83.40;;;;;;5105135;27;20399;-66
2022/07/20 07:26:16;;;;;;;;;;;24.30;82.90;;;;;;5099953;27;19993;-68
2022/07/20 07:28:42;;;;;;;;;;;24.20;81.20;;;;;;5097319;28;20074;-69
2022/07/20 07:31:09;;;;;;;;;;;23.90;83.50;;;;;;5089730;28;20203;-73
2022/07/20 07:33:36;;;;;;;;;;;23.60;84.90;;;;;;5092952;27;20023;-80
2022/07/20 07:36:03;;;;;;;;;;;23.20;85.40;;;;;;5093410;28;20031;-75
2022/07/20 07:38:31;;;;;;;;;;;23.00;86.10;;;;;;5090287;28;20352;-75
2022/07/20 07:40:58;;;;;;;;;;;22.80;86.40;;;;;;5102554;28;20452;-74
2022/07/20 07:43:25;;;;;;;;;;;22.80;87.40;;;;;;5096263;28;19930;-75
2022/07/20 07:45:51;;;;;;;;;;;22.80;88.20;;;;;;5091564;28;19924;-80
2022/07/20 07:48:18;;;;;;;;;;;22.90;89.10;;;;;;5092083;28;19928;-77
2022/07/20 07:50:45;;;;;;;;;;;23.00;90.10;;;;;;5093188;28;20391;-77
2022/07/20 07:53:12;;;;;;;;;;;22.80;89.20;;;;;;5092124;28;20105;-77
2022/07/20 07:55:41;;;;;;;;;;;22.70;91.20;;;;;;5094088;28;20018;-73
2022/07/20 07:58:08;;;;;;;;;;;22.80;91.10;;;;;;5090282;27;19965;-74
2022/07/20 08:00:36;;;;;;;;;;;22.90;90.90;;;;;;5102502;28;19963;-75
2022/07/20 08:03:03;;;;;;;;;;;23.20;90.00;;;;;;5095660;27;19924;-75
2022/07/20 08:05:29;;;;;;;;;;;23.60;89.20;;;;;;5094203;28;20093;-81
2022/07/20 08:07:56;;;;;;;;;;;24.00;86.90;;;;;;5092126;27;20018;-81
2022/07/20 08:10:23;;;;;;;;;;;24.20;85.70;;;;;;5097953;28;19930;-80
2022/07/20 08:12:51;;;;;;;;;;;24.40;85.00;;;;;;5095913;28;20279;-80
2022/07/20 08:15:18;;;;;;;;;;;24.60;84.30;;;;;;5102435;28;20337;-78
2022/07/20 08:17:45;;;;;;;;;;;25.80;80.60;;;;;;5101722;28;19935;-81
2022/07/20 08:20:12;;;;;;;;;;;25.80;77.70;;;;;;5104371;27;20011;-80
2022/07/20 08:22:38;;;;;;;;;;;25.40;78.20;;;;;;5098630;27;20004;-81
2022/07/20 08:25:06;;;;;;;;;;;24.80;80.80;;;;;;5093594;28;19924;-81
2022/07/20 08:27:34;;;;;;;;;;;24.40;83.00;;;;;;5106652;28;19931;-80
2022/07/20 08:30:02;;;;;;;;;;;24.10;85.00;;;;;;5102409;28;19923;-83
2022/07/20 08:32:29;;;;;;;;;;;23.80;89.80;;;;;;5094710;28;20000;-79
2022/07/20 08:34:56;;;;;;;;;;;23.50;93.90;;;;;;5098850;28;20399;-79
2022/07/20 08:37:23;;;;;;;;;;;23.40;97.40;;;;;;5095997;28;19961;-81
2022/07/20 08:39:50;;;;;;;;;;;23.20;97.20;;;;;;5096593;28;20021;-81
2022/07/20 08:42:17;;;;;;;;;;;23.10;99.40;;;;;;5099545;28;19967;-78
2022/07/20 08:44:44;;;;;;;;;;;23.00;99.90;;;;;;5095719;28;20295;-79
2022/07/20 08:47:13;;;;;;;;;;;22.90;99.90;;;;;;5096836;28;19931;-79
2022/07/20 08:49:43;;;;;;;;;;;22.90;99.90;;;;;;5093791;28;19924;-79
2022/07/20 08:52:10;;;;;;;;;;;22.90;99.90;;;;;;5098762;28;19969;-80
2022/07/20 08:54:37;;;;;;;;;;;23.10;99.90;;;;;;5098056;28;20014;-83
2022/07/20 08:57:07;;;;;;;;;;;23.20;99.90;;;;;;5096362;28;19931;-80
2022/07/20 08:59:34;;;;;;;;;;;23.10;99.90;;;;;;5096256;28;19934;-80
2022/07/20 09:02:01;;;;;;;;;;;23.10;99.90;;;;;;5089268;28;20446;-70
2022/07/20 09:04:29;;;;;;;;;;;23.50;99.90;;;;;;5094879;28;20402;-73
2022/07/20 09:06:56;;;;;;;;;;;23.80;99.90;;;;;;5097040;28;19931;-73
2022/07/20 09:09:23;;;;;;;;;;;24.10;99.90;;;;;;5091478;28;19927;-70
2022/07/20 09:11:50;;;;;;;;;;;24.10;99.70;;;;;;5092067;28;19970;-71
2022/07/20 09:14:35;;;;;;;;;;;24.10;99.80;;;;;;5093722;28;19923;-70
2022/07/20 09:17:14;;;;;;;;;;;23.90;99.50;;;;;;5091821;28;19932;-70
2022/07/20 09:19:55;;;;;;;;;;;23.70;99.90;;;;;;5096454;28;20030;-71
2022/07/20 09:22:29;;;;;;;;;;;23.60;99.90;;;;;;5089633;28;19931;-70
2022/07/20 09:25:05;;;;;;;;;;;23.60;99.90;;;;;;5099910;28;20014;-71
2022/07/20 09:27:33;;;;;;;;;;;23.40;99.90;;;;;;5089009;28;19932;-70
2022/07/20 09:30:04;;;;;;;;;;;23.70;99.90;;;;;;5095690;28;22566;-70
2022/07/20 09:32:31;;;;;;;;;;;24.30;98.50;;;;;;5093453;28;20561;-70
2022/07/20 09:35:02;;;;;;;;;;;24.30;99.90;;;;;;5099916;28;20030;-71
2022/07/20 09:37:38;;;;;;;;;;;24.10;99.90;;;;;;5096877;27;19932;-71
2022/07/20 09:40:05;;;;;;;;;;;23.90;99.90;;;;;;5096622;27;19928;-72
2022/07/20 09:42:39;;;;;;;;;;;23.60;99.90;;;;;;5093401;28;21325;-70
2022/07/20 09:45:18;;;;;;;;;;;23.50;99.90;;;;;;5101693;27;19928;-71
2022/07/20 09:48:00;;;;;;;;;;;23.50;99.90;;;;;;5092085;27;19978;-71
2022/07/20 09:50:29;;;;;;;;;;;23.50;99.90;;;;;;5101430;27;19924;-70
2022/07/20 09:52:56;;;;;;;;;;;23.60;99.90;;;;;;5097323;27;19958;-70
2022/07/20 09:55:23;;;;;;;;;;;24.10;99.90;;;;;;5107098;27;19934;-71
2022/07/20 09:57:50;;;;;;;;;;;25.00;99.90;;;;;;5093539;28;20014;-71
2022/07/20 10:00:17;;;;;;;;;;;25.40;97.00;;;;;;5098841;28;20009;-70
2022/07/20 10:02:46;;;;;;;;;;;25.20;96.60;;;;;;5093294;28;20368;-70
2022/07/20 10:05:13;;;;;;;;;;;25.00;97.00;;;;;;5105760;28;20023;-71
2022/07/20 10:07:42;;;;;;;;;;;25.10;97.00;;;;;;5100363;28;20007;-70
2022/07/20 10:10:09;;;;;;;;;;;25.30;96.70;;;;;;5104242;28;20275;-71
2022/07/20 10:12:36;;;;;;;;;;;26.40;94.30;;;;;;5100936;28;19973;-70
2022/07/20 10:15:03;;;;;;;;;;;26.90;92.10;;;;;;5096813;27;19924;-71
2022/07/20 10:17:30;;;;;;;;;;;27.10;91.60;;;;;;5096147;28;19982;-69
2022/07/20 10:19:57;;;;;;;;;;;26.70;90.80;;;;;;5100286;27;19923;-71
2022/07/20 10:22:24;;;;;;;;;;;26.40;90.00;;;;;;5095759;28;20011;-70
2022/07/20 10:25:05;;;;;;;;;;;26.40;89.10;;;;;;5100596;28;19924;-70
2022/07/20 10:27:36;;;;;;;;;;;26.40;89.40;;;;;;5105053;28;19923;-70
2022/07/20 10:30:15;;;;;;;;;;;26.30;88.90;;;;;;5095138;28;19960;-72
2022/07/20 10:32:49;;;;;;;;;;;26.30;87.60;;;;;;5092841;28;19965;-70
2022/07/20 10:35:25;;;;;;;;;;;25.90;88.90;;;;;;5102399;28;19931;-70
2022/07/20 10:37:54;;;;;;;;;;;26.10;88.60;;;;;;5092525;28;20017;-70
2022/07/20 10:40:22;;;;;;;;;;;25.80;88.70;;;;;;5106052;28;19954;-70
2022/07/20 10:42:52;;;;;;;;;;;25.80;90.60;;;;;;5099259;28;19977;-70
2022/07/20 10:45:29;;;;;;;;;;;26.00;90.50;;;;;;5101562;27;20362;-71
2022/07/20 10:47:57;;;;;;;;;;;26.30;89.70;;;;;;5094386;28;19924;-70
2022/07/20 10:50:24;;;;;;;;;;;26.70;86.60;;;;;;5106681;28;19979;-69
2022/07/20 10:52:53;;;;;;;;;;;26.60;84.10;;;;;;5098658;28;20022;-70
2022/07/20 10:55:38;;;;;;;;;;;26.30;83.30;;;;;;5090798;28;20405;-70
2022/07/20 10:58:07;;;;;;;;;;;26.30;85.50;;;;;;5090378;28;19931;-71
2022/07/20 11:00:35;;;;;;;;;;;26.20;83.00;;;;;;5105714;27;19985;-70
2022/07/20 11:03:02;;;;;;;;;;;26.30;83.70;;;;;;5092439;27;19963;-70
2022/07/20 11:05:29;;;;;;;;;;;26.30;84.20;;;;;;5105640;28;19974;-70
2022/07/20 11:07:56;;;;;;;;;;;26.20;84.10;;;;;;5107498;28;19970;-70
2022/07/20 11:10:24;;;;;;;;;;;26.40;84.20;;;;;;5103941;28;19966;-70
2022/07/20 11:12:55;;;;;;;;;;;26.50;81.90;;;;;;5096552;27;19971;-70
2022/07/20 11:15:24;;;;;;;;;;;26.50;81.10;;;;;;5102462;27;19931;-69
2022/07/20 11:17:54;;;;;;;;;;;26.40;81.90;;;;;;5091361;28;20061;-70
2022/07/20 11:20:20;;;;;;;;;;;26.80;81.00;;;;;;5100406;28;19973;-70
2022/07/20 11:22:48;;;;;;;;;;;26.80;77.00;;;;;;5090878;27;19932;-70
2022/07/20 11:25:14;;;;;;;;;;;27.00;77.10;;;;;;5089085;27;20591;-70
2022/07/20 11:27:41;;;;;;;;;;;26.70;76.90;;;;;;5102229;27;19924;-70
2022/07/20 11:30:09;;;;;;;;;;;26.50;78.70;;;;;;5099090;27;19924;-70
2022/07/20 11:32:51;;;;;;;;;;;26.20;79.10;;;;;;5092618;28;19924;-69
2022/07/20 11:35:20;;;;;;;;;;;26.00;79.60;;;;;;5104364;28;19959;-71
2022/07/20 11:37:50;;;;;;;;;;;25.90;81.50;;;;;;5106121;27;19936;-70
2022/07/20 11:40:17;;;;;;;;;;;26.10;81.40;;;;;;5098933;28;19970;-71
2022/07/20 11:42:44;;;;;;;;;;;25.80;81.30;;;;;;5092985;28;20387;-72
2022/07/20 11:45:11;;;;;;;;;;;25.70;84.00;;;;;;5100948;28;20351;-73
2022/07/20 11:47:39;;;;;;;;;;;25.70;84.20;;;;;;5091464;28;20331;-70
2022/07/20 11:50:07;;;;;;;;;;;25.90;84.50;;;;;;5095220;28;19970;-72
2022/07/20 11:52:40;;;;;;;;;;;26.40;83.30;;;;;;5092371;28;20023;-70
2022/07/20 11:55:08;;;;;;;;;;;26.70;82.40;;;;;;5097094;28;20083;-71
2022/07/20 11:57:35;;;;;;;;;;;26.70;82.10;;;;;;5091908;28;19948;-73
2022/07/20 12:00:03;;;;;;;;;;;26.40;81.20;;;;;;5090089;28;19924;-71
2022/07/20 12:02:30;;;;;;;;;;;26.30;82.60;;;;;;5093683;28;19924;-73
2022/07/20 12:05:00;;;;;;;;;;;26.40;83.40;;;;;;5089075;28;20023;-72
2022/07/20 12:10:17;;;;;;;;;;;27.00;81.30;;;;;;5096465;28;19949;-72
2022/07/20 12:12:47;;;;;;;;;;;27.20;79.70;;;;;;5096605;28;19924;-71
2022/07/20 12:15:14;;;;;;;;;;;26.80;80.00;;;;;;5097792;28;20033;-71
2022/07/20 12:17:49;;;;;;;;;;;26.80;80.80;;;;;;5099816;28;21329;-72
2022/07/20 12:20:17;;;;;;;;;;;27.00;81.00;;;;;;5097803;28;19969;-73
2022/07/20 12:22:50;;;;;;;;;;;27.10;80.30;;;;;;5093651;28;19923;-71
2022/07/20 12:25:17;;;;;;;;;;;27.10;80.70;;;;;;5094802;28;20359;-71
2022/07/20 12:27:44;;;;;;;;;;;26.90;80.10;;;;;;5100811;28;20014;-72
2022/07/20 12:30:24;;;;;;;;;;;26.70;80.20;;;;;;5097010;28;20011;-73
2022/07/20 12:33:02;;;;;;;;;;;26.80;80.70;;;;;;5092445;28;20476;-75
2022/07/20 12:35:30;;;;;;;;;;;26.80;80.80;;;;;;5096400;28;20391;-72
2022/07/20 12:37:57;;;;;;;;;;;26.80;80.30;;;;;;5092385;28;20287;-72
2022/07/20 12:40:31;;;;;;;;;;;26.50;81.10;;;;;;5093427;28;20379;-73
2022/07/20 12:42:58;;;;;;;;;;;26.00;82.90;;;;;;5094532;28;19977;-72
2022/07/20 12:45:25;;;;;;;;;;;25.90;84.70;;;;;;5094445;28;20059;-72
2022/07/20 12:47:52;;;;;;;;;;;26.10;84.10;;;;;;5096824;28;20015;-70
2022/07/20 12:50:18;;;;;;;;;;;26.30;83.30;;;;;;5092709;28;19946;-71
2022/07/20 12:52:47;;;;;;;;;;;26.30;81.90;;;;;;5094250;28;19974;-70
2022/07/20 12:55:14;;;;;;;;;;;26.00;83.50;;;;;;5093683;28;20371;-71
2022/07/20 12:57:41;;;;;;;;;;;25.80;83.60;;;;;;5091128;28;20026;-71
2022/07/20 13:00:09;;;;;;;;;;;25.80;83.80;;;;;;5092906;28;20324;-71
2022/07/20 13:02:35;;;;;;;;;;;25.70;83.80;;;;;;5095680;28;19924;-71
2022/07/20 13:05:02;;;;;;;;;;;25.40;85.40;;;;;;5090693;28;19924;-71
2022/07/20 13:07:29;;;;;;;;;;;25.20;87.40;;;;;;5090928;28;19967;-71
2022/07/20 13:09:57;;;;;;;;;;;25.20;87.50;;;;;;5102075;27;19924;-72
2022/07/20 13:12:25;;;;;;;;;;;25.10;88.70;;;;;;5094838;27;19928;-70
2022/07/20 13:14:52;;;;;;;;;;;24.80;89.10;;;;;;5101684;27;20330;-71
2022/07/20 13:17:18;;;;;;;;;;;24.90;89.40;;;;;;5099663;28;19928;-70
2022/07/20 13:19:45;;;;;;;;;;;24.80;88.40;;;;;;5097601;28;19924;-69
2022/07/20 13:22:14;;;;;;;;;;;24.80;89.20;;;;;;5094758;27;20387;-71
2022/07/20 13:24:41;;;;;;;;;;;25.00;88.10;;;;;;5099424;27;20418;-70
2022/07/20 13:27:09;;;;;;;;;;;25.10;87.80;;;;;;5093021;28;19924;-70
2022/07/20 13:29:35;;;;;;;;;;;25.10;87.70;;;;;;5096075;28;19947;-70
2022/07/20 13:32:02;;;;;;;;;;;25.10;87.80;;;;;;5094488;27;19932;-71
2022/07/20 13:34:29;;;;;;;;;;;25.10;88.90;;;;;;5097366;27;20031;-74
2022/07/20 13:36:56;;;;;;;;;;;25.10;89.20;;;;;;5094308;27;19932;-72
2022/07/20 13:39:22;;;;;;;;;;;25.30;88.90;;;;;;5099646;27;20014;-73
2022/07/20 13:41:49;;;;;;;;;;;25.50;87.90;;;;;;5098971;27;19951;-73
2022/07/20 13:44:17;;;;;;;;;;;25.30;87.60;;;;;;5098798;27;19959;-73
2022/07/20 13:46:44;;;;;;;;;;;25.30;87.30;;;;;;5101000;27;20061;-73
2022/07/20 13:49:12;;;;;;;;;;;25.20;88.20;;;;;;5101583;27;20386;-73
2022/07/20 13:51:38;;;;;;;;;;;25.10;87.80;;;;;;5093964;28;20343;-71
2022/07/20 13:54:05;;;;;;;;;;;25.00;88.70;;;;;;5094083;27;20299;-72
2022/07/20 13:56:32;;;;;;;;;;;25.20;88.40;;;;;;5095727;27;20026;-73
2022/07/20 13:59:01;;;;;;;;;;;25.30;87.30;;;;;;5095031;28;19980;-73
2022/07/20 14:01:29;;;;;;;;;;;25.50;87.00;;;;;;5099676;28;20018;-74
2022/07/20 14:03:56;;;;;;;;;;;25.50;86.00;;;;;;5098071;28;20024;-74
2022/07/20 14:06:23;;;;;;;;;;;25.30;86.40;;;;;;5101620;27;19924;-73
2022/07/20 14:08:49;;;;;;;;;;;25.50;87.00;;;;;;5108594;28;19934;-73
2022/07/20 14:11:16;;;;;;;;;;;25.70;86.00;;;;;;5097755;27;19924;-74
2022/07/20 14:13:43;;;;;;;;;;;25.60;85.90;;;;;;5092169;28;20033;-74
2022/07/20 14:16:09;;;;;;;;;;;25.70;86.40;;;;;;5100463;27;20059;-74
2022/07/20 14:18:38;;;;;;;;;;;25.70;86.60;;;;;;5107558;28;19978;-72
2022/07/20 14:21:04;;;;;;;;;;;26.00;85.90;;;;;;5092859;27;19968;-69
2022/07/20 14:23:31;;;;;;;;;;;26.20;84.70;;;;;;5102767;28;20026;-70
2022/07/20 14:25:58;;;;;;;;;;;26.30;84.70;;;;;;5098031;27;19924;-70